Time;durP1;ratioP1;P1;durP2;ratioP2;P2;SDS_P1;SDS_P2;PMS_P1;PMS_P2;Temp;Humidity;BMP_temperature;BMP_pressure;BME280_temperature;BME280_humidity;BME280_pressure;Samples;Min_cycle;Max_cycle;Signal;HPM_P1;HPM_P2
2023/04/16 00:00:06;;;;;;;22.40;16.88;;;;;;;7.19;100.00;101871.97;4999404;28;20605;-47
2023/04/16 00:02:40;;;;;;;24.55;16.92;;;;;;;7.23;100.00;101871.00;4997817;28;20184;-45
2023/04/16 00:05:06;;;;;;;19.52;17.13;;;;;;;7.24;100.00;101861.25;4994922;28;20276;-44
2023/04/16 00:07:32;;;;;;;19.15;17.05;;;;;;;7.23;100.00;101857.69;5000738;28;20169;-45
2023/04/16 00:09:57;;;;;;;21.02;16.58;;;;;;;7.29;100.00;101863.88;4997266;28;20262;-44
2023/04/16 00:12:23;;;;;;;19.38;17.27;;;;;;;7.29;100.00;101856.78;5000431;28;20549;-43
2023/04/16 00:14:48;;;;;;;22.70;16.85;;;;;;;7.29;100.00;101859.44;4999517;28;20173;-45
2023/04/16 00:17:14;;;;;;;21.65;17.02;;;;;;;7.32;100.00;101854.06;5000243;28;20700;-45
2023/04/16 00:19:40;;;;;;;18.05;15.98;;;;;;;7.38;100.00;101861.13;4999564;28;20208;-44
2023/04/16 00:22:05;;;;;;;19.48;16.55;;;;;;;7.39;100.00;101850.47;4999684;28;20199;-46
2023/04/16 00:24:31;;;;;;;21.73;17.52;;;;;;;7.39;100.00;101853.13;4996859;28;20174;-45
2023/04/16 00:26:56;;;;;;;21.63;16.20;;;;;;;7.42;100.00;101862.88;5001370;28;20214;-47
2023/04/16 00:29:22;;;;;;;21.60;16.08;;;;;;;7.42;100.00;101857.56;4996478;28;20561;-46
2023/04/16 00:31:47;;;;;;;22.30;16.10;;;;;;;7.45;100.00;101857.50;4995962;28;20172;-44
2023/04/16 00:34:13;;;;;;;19.85;16.55;;;;;;;7.41;100.00;101864.69;4999632;28;20188;-45
2023/04/16 00:36:39;;;;;;;21.48;16.73;;;;;;;7.48;100.00;101857.50;4995654;28;20177;-44
2023/04/16 00:39:04;;;;;;;19.63;15.75;;;;;;;7.51;100.00;101848.59;4997349;28;20263;-46
2023/04/16 00:41:29;;;;;;;21.58;16.27;;;;;;;7.50;100.00;101854.81;5000495;28;20213;-46
2023/04/16 00:43:56;;;;;;;18.60;15.52;;;;;;;7.51;100.00;101860.13;5006682;28;20324;-45
2023/04/16 00:46:23;;;;;;;18.75;15.88;;;;;;;7.56;100.00;101860.09;5007939;28;20184;-44
2023/04/16 00:48:50;;;;;;;20.45;16.65;;;;;;;7.58;100.00;101872.50;5001472;28;20300;-46
2023/04/16 00:51:18;;;;;;;19.50;15.25;;;;;;;7.57;100.00;101865.41;4980777;28;20177;-47
2023/04/16 00:53:45;;;;;;;19.85;16.65;;;;;;;7.56;100.00;101863.63;4989151;28;20200;-45
2023/04/16 00:56:11;;;;;;;20.50;15.20;;;;;;;7.53;100.00;101854.78;4998911;28;20192;-46
2023/04/16 00:58:37;;;;;;;20.73;15.77;;;;;;;7.49;100.00;101859.25;5005787;28;20682;-45
2023/04/16 01:01:04;;;;;;;18.88;16.10;;;;;;;7.51;100.00;101865.47;5006264;28;20231;-45
2023/04/16 01:03:43;;;;;;;19.25;15.73;;;;;;;7.50;100.00;101854.81;4996391;28;20640;-46
2023/04/16 01:06:09;;;;;;;19.00;15.90;;;;;;;7.52;100.00;101856.59;5008136;28;20192;-44
2023/04/16 01:08:35;;;;;;;19.88;16.25;;;;;;;7.51;100.00;101859.25;4999561;28;20859;-44
2023/04/16 01:11:01;;;;;;;18.13;16.23;;;;;;;7.49;100.00;101851.25;5001504;28;20203;-47
2023/04/16 01:13:27;;;;;;;20.05;14.43;;;;;;;7.49;100.00;101858.38;5000685;28;20185;-44
2023/04/16 01:15:52;;;;;;;19.80;16.13;;;;;;;7.48;100.00;101864.59;4997191;28;20268;-47
2023/04/16 01:18:20;;;;;;;21.05;16.52;;;;;;;7.46;100.00;101861.09;5004383;28;21844;-47
2023/04/16 01:20:47;;;;;;;20.63;16.40;;;;;;;7.42;100.00;101861.09;4995989;28;20205;-45
2023/04/16 01:23:13;;;;;;;25.05;17.13;;;;;;;7.40;100.00;101864.69;5005594;28;20662;-46
2023/04/16 01:25:39;;;;;;;20.52;16.92;;;;;;;7.42;100.00;101869.09;5006417;28;20193;-44
2023/04/16 01:28:05;;;;;;;20.20;16.75;;;;;;;7.45;100.00;101860.19;5002383;28;20216;-46
2023/04/16 01:30:31;;;;;;;22.80;18.67;;;;;;;7.43;100.00;101867.31;5011418;28;20193;-44
2023/04/16 01:33:12;;;;;;;20.15;17.23;;;;;;;7.41;100.00;101874.44;4998002;28;20188;-45
2023/04/16 01:35:39;;;;;;;24.67;19.35;;;;;;;7.38;100.00;101879.81;4998727;28;20204;-47
2023/04/16 01:38:06;;;;;;;26.10;18.58;;;;;;;7.36;100.00;101876.25;4980346;28;20702;-48
2023/04/16 01:40:33;;;;;;;22.15;18.60;;;;;;;7.34;100.00;101878.06;4999809;28;20246;-46
2023/04/16 01:42:59;;;;;;;21.17;17.52;;;;;;;7.30;100.00;101893.19;5003925;28;20200;-47
2023/04/16 01:45:25;;;;;;;25.17;19.60;;;;;;;7.30;100.00;101893.19;5009775;28;20543;-45
2023/04/16 01:47:51;;;;;;;24.42;19.05;;;;;;;7.25;100.00;101889.66;5005018;28;20200;-45
2023/04/16 01:50:17;;;;;;;20.33;18.13;;;;;;;7.25;100.00;101889.66;4999900;28;20186;-45
2023/04/16 01:52:43;;;;;;;25.30;19.88;;;;;;;7.27;100.00;101890.53;4999870;28;20216;-45
2023/04/16 01:55:09;;;;;;;24.45;18.63;;;;;;;7.33;100.00;101890.50;5005584;28;20338;-44
2023/04/16 01:57:35;;;;;;;24.05;17.58;;;;;;;7.33;100.00;101887.84;5002209;28;20181;-45
2023/04/16 02:00:02;;;;;;;23.13;18.23;;;;;;;7.34;100.00;101892.25;5010833;28;20216;-45
2023/04/16 02:02:29;;;;;;;21.23;17.67;;;;;;;7.40;100.00;101894.88;4992837;28;20676;-45
2023/04/16 02:04:58;;;;;;;22.80;17.42;;;;;;;7.44;100.00;101901.09;5000365;28;20240;-46
2023/04/16 02:07:24;;;;;;;18.92;16.92;;;;;;;7.52;100.00;101891.25;5010947;28;20276;-47
2023/04/16 02:09:50;;;;;;;21.67;17.88;;;;;;;7.52;100.00;101896.59;4999452;28;20211;-45
2023/04/16 02:12:16;;;;;;;18.95;16.75;;;;;;;7.54;100.00;101886.78;5001212;28;20190;-43
2023/04/16 02:14:42;;;;;;;20.98;17.33;;;;;;;7.55;100.00;101877.00;5001787;28;20208;-46
2023/04/16 02:17:09;;;;;;;21.17;16.67;;;;;;;7.56;100.00;101879.63;5010569;28;20254;-44
2023/04/16 02:19:40;;;;;;;20.17;16.52;;;;;;;7.55;100.00;101887.66;4991483;28;20210;-45
2023/04/16 02:22:07;;;;;;;24.15;18.02;;;;;;;7.56;100.00;101878.75;5004284;28;20197;-47
2023/04/16 02:24:33;;;;;;;17.98;16.00;;;;;;;7.58;100.00;101883.16;5006335;28;20195;-45
2023/04/16 02:27:03;;;;;;;21.38;17.23;;;;;;;7.57;100.00;101883.22;5010857;28;20190;-45
2023/04/16 02:29:29;;;;;;;19.27;17.02;;;;;;;7.58;100.00;101876.97;5008067;28;20228;-46
2023/04/16 02:32:01;;;;;;;18.52;15.82;;;;;;;7.64;100.00;101892.91;5010100;28;20200;-44
2023/04/16 02:34:28;;;;;;;17.92;16.02;;;;;;;7.62;100.00;101878.72;4999974;28;20196;-46
2023/04/16 02:36:54;;;;;;;20.60;16.50;;;;;;;7.57;100.00;101889.41;5007271;28;20801;-43
2023/04/16 02:39:19;;;;;;;20.17;16.23;;;;;;;7.63;100.00;101885.78;5007819;28;20224;-46
2023/04/16 02:41:45;;;;;;;20.02;16.27;;;;;;;7.64;100.00;101884.91;5008741;28;20307;-46
2023/04/16 02:44:11;;;;;;;20.85;17.17;;;;;;;7.61;100.00;101883.16;5003234;28;20184;-47
2023/04/16 02:46:37;;;;;;;18.73;15.13;;;;;;;7.61;100.00;101892.97;5008413;28;20640;-44
2023/04/16 02:49:02;;;;;;;18.23;16.13;;;;;;;7.67;100.00;101887.53;4991112;28;20204;-45
2023/04/16 02:51:28;;;;;;;19.50;15.45;;;;;;;7.66;100.00;101885.78;4995840;28;20275;-46
2023/04/16 02:53:53;;;;;;;16.92;15.10;;;;;;;7.64;100.00;101884.91;5009396;28;20287;-44
2023/04/16 02:56:19;;;;;;;16.75;15.15;;;;;;;7.60;100.00;101881.38;5005932;28;20279;-48
2023/04/16 02:58:45;;;;;;;21.38;15.50;;;;;;;7.63;100.00;101889.38;4999998;28;20842;-45
2023/04/16 03:01:10;;;;;;;17.40;14.90;;;;;;;7.61;100.00;101885.84;5008122;28;20213;-45
2023/04/16 03:03:36;;;;;;;19.98;16.08;;;;;;;7.62;100.00;101886.72;5001908;28;20284;-45
2023/04/16 03:06:01;;;;;;;20.95;15.50;;;;;;;7.61;100.00;101892.97;4997101;28;20197;-47
2023/04/16 03:08:27;;;;;;;19.63;15.15;;;;;;;7.62;100.00;101884.91;5000368;28;20209;-46
2023/04/16 03:10:52;;;;;;;19.25;15.65;;;;;;;7.61;100.00;101895.63;4997561;28;20238;-45
2023/04/16 03:13:18;;;;;;;17.50;15.63;;;;;;;7.58;100.00;101896.50;4995709;28;20260;-44
2023/04/16 03:15:48;;;;;;;17.67;15.23;;;;;;;7.64;100.00;101899.13;5007158;28;20180;-42
2023/04/16 03:18:14;;;;;;;17.75;15.20;;;;;;;7.67;100.00;101900.00;5009823;28;20209;-47
2023/04/16 03:20:39;;;;;;;20.90;16.20;;;;;;;7.71;100.00;101893.75;4994871;28;20710;-41
2023/04/16 03:23:05;;;;;;;21.15;16.45;;;;;;;7.66;100.00;101896.47;4990924;28;20704;-43
2023/04/16 03:25:30;;;;;;;20.50;17.48;;;;;;;7.52;100.00;101901.00;5007392;28;20188;-45
2023/04/16 03:27:56;;;;;;;20.02;16.92;;;;;;;7.45;100.00;101904.63;5010540;28;20260;-47
2023/04/16 03:30:22;;;;;;;22.65;17.58;;;;;;;7.35;100.00;101904.72;5010278;28;20295;-48
2023/04/16 03:32:48;;;;;;;21.00;17.75;;;;;;;7.28;100.00;101908.31;5001826;28;20630;-48
2023/04/16 03:35:14;;;;;;;19.73;17.60;;;;;;;7.25;100.00;101905.66;4984176;28;20188;-47
2023/04/16 03:37:40;;;;;;;20.45;18.35;;;;;;;7.21;100.00;101915.47;5006511;28;20191;-45
2023/04/16 03:40:07;;;;;;;22.40;18.90;;;;;;;7.21;100.00;101925.25;5004299;28;20265;-47
2023/04/16 03:42:33;;;;;;;24.40;18.90;;;;;;;7.19;100.00;101925.28;5003351;28;20190;-46
2023/04/16 03:44:59;;;;;;;22.98;17.90;;;;;;;7.20;100.00;101915.47;5007734;28;20223;-46
2023/04/16 03:47:25;;;;;;;21.90;17.60;;;;;;;7.21;100.00;101925.25;4996771;28;20670;-47
2023/04/16 03:49:54;;;;;;;22.08;18.10;;;;;;;7.23;100.00;101923.44;5008273;28;20231;-48
2023/04/16 03:52:20;;;;;;;21.35;16.48;;;;;;;7.26;100.00;101919.88;5000842;28;20216;-46
2023/04/16 03:54:46;;;;;;;22.77;17.05;;;;;;;7.30;100.00;101921.63;5006890;28;20193;-47
2023/04/16 03:57:21;;;;;;;22.73;16.77;;;;;;;7.30;100.00;101917.16;5005925;28;20184;-46
2023/04/16 03:59:47;;;;;;;20.13;16.67;;;;;;;7.34;100.00;101916.25;4998566;28;20262;-46
2023/04/16 04:02:14;;;;;;;19.23;16.30;;;;;;;7.39;100.00;101914.47;5000785;28;20181;-47
2023/04/16 04:04:41;;;;;;;19.42;15.27;;;;;;;7.45;100.00;101909.97;4996045;28;20351;-45
2023/04/16 04:07:08;;;;;;;20.88;16.30;;;;;;;7.42;100.00;101919.75;5004680;28;20185;-47
2023/04/16 04:09:34;;;;;;;19.60;15.10;;;;;;;7.49;100.00;101915.25;5005953;28;20682;-47
2023/04/16 04:12:02;;;;;;;21.02;16.80;;;;;;;7.44;100.00;101925.09;5006244;28;20201;-46
2023/04/16 04:14:29;;;;;;;19.80;16.08;;;;;;;7.45;100.00;101917.97;5007232;28;20181;-47
2023/04/16 04:16:54;;;;;;;19.80;15.73;;;;;;;7.43;100.00;101926.88;5005529;28;20237;-46
2023/04/16 04:19:20;;;;;;;20.73;16.02;;;;;;;7.45;100.00;101923.28;5002378;28;20285;-47
2023/04/16 04:21:46;;;;;;;17.27;15.20;;;;;;;7.43;100.00;101925.97;5016083;28;20208;-47
2023/04/16 04:24:12;;;;;;;19.15;16.70;;;;;;;7.49;100.00;101935.72;4999319;28;20229;-46
2023/04/16 04:26:37;;;;;;;20.17;15.18;;;;;;;7.50;100.00;101932.13;4998063;28;20786;-48
2023/04/16 04:29:03;;;;;;;22.90;16.13;;;;;;;7.49;100.00;101931.25;4995364;28;20212;-47
2023/04/16 04:31:29;;;;;;;18.30;14.93;;;;;;;7.49;100.00;101931.25;5006168;28;20253;-47
2023/04/16 04:33:54;;;;;;;17.52;15.73;;;;;;;7.48;100.00;101936.59;4990270;28;20200;-46
2023/04/16 04:36:20;;;;;;;18.23;14.73;;;;;;;7.52;100.00;101930.34;4997495;28;20259;-47
2023/04/16 04:38:46;;;;;;;17.98;15.02;;;;;;;7.52;100.00;101946.34;5005032;28;20302;-46
2023/04/16 04:41:12;;;;;;;18.70;16.08;;;;;;;7.54;100.00;101928.56;5004063;28;20687;-46
2023/04/16 04:43:38;;;;;;;17.95;15.65;;;;;;;7.46;100.00;101941.09;4999103;28;20199;-46
2023/04/16 04:46:04;;;;;;;21.95;16.65;;;;;;;7.40;100.00;101942.88;5004268;28;20212;-47
2023/04/16 04:48:30;;;;;;;21.05;16.40;;;;;;;7.34;100.00;101940.25;5002719;28;20209;-47
2023/04/16 04:50:56;;;;;;;19.05;16.95;;;;;;;7.32;100.00;101941.16;4994248;28;20207;-47
2023/04/16 04:53:22;;;;;;;20.35;16.90;;;;;;;7.25;100.00;101955.44;4996758;28;20208;-49
2023/04/16 04:55:48;;;;;;;21.88;16.75;;;;;;;7.20;100.00;101950.13;5002006;28;20225;-47
2023/04/16 04:58:13;;;;;;;19.13;16.02;;;;;;;7.21;100.00;101947.47;4992372;28;20217;-45
2023/04/16 05:00:41;;;;;;;19.02;16.60;;;;;;;7.25;100.00;101950.97;4997537;28;20255;-47
2023/04/16 05:03:10;;;;;;;18.30;16.25;;;;;;;7.25;100.00;101958.09;5000837;28;20961;-47
2023/04/16 05:05:35;;;;;;;19.98;16.75;;;;;;;7.23;100.00;101953.66;4996208;28;20173;-47
2023/04/16 05:08:01;;;;;;;18.38;15.43;;;;;;;7.33;100.00;101951.81;4999770;28;20303;-46
2023/04/16 05:10:26;;;;;;;17.40;14.70;;;;;;;7.43;100.00;101950.88;5005270;28;20280;-47
2023/04/16 05:12:52;;;;;;;16.58;14.60;;;;;;;7.51;100.00;101944.59;5000554;28;20185;-47
2023/04/16 05:15:18;;;;;;;19.23;14.07;;;;;;;7.58;100.00;101943.63;5002323;28;20208;-48
2023/04/16 05:17:43;;;;;;;17.75;15.52;;;;;;;7.61;100.00;101946.28;5001431;28;20191;-47
2023/04/16 05:20:10;;;;;;;15.88;14.07;;;;;;;7.63;100.00;101942.72;5003145;28;20205;-46
2023/04/16 05:22:35;;;;;;;17.48;14.45;;;;;;;7.66;100.00;101948.91;5002309;28;20594;-47
2023/04/16 05:25:01;;;;;;;16.80;14.40;;;;;;;7.69;100.00;101948.88;5000157;28;20185;-45
2023/04/16 05:27:26;;;;;;;18.00;13.93;;;;;;;7.74;100.00;101953.28;5002453;28;20626;-44
2023/04/16 05:29:52;;;;;;;19.27;13.27;;;;;;;7.79;100.00;101955.94;4999608;28;20198;-47
2023/04/16 05:32:17;;;;;;;19.42;14.18;;;;;;;7.79;100.00;101951.47;5002208;28;20648;-48
2023/04/16 05:34:43;;;;;;;18.50;14.90;;;;;;;7.73;100.00;101961.31;5003112;28;20612;-46
2023/04/16 05:37:08;;;;;;;16.23;13.50;;;;;;;7.70;100.00;101967.56;5006278;28;20191;-48
2023/04/16 05:39:34;;;;;;;23.58;14.63;;;;;;;7.61;100.00;101971.19;5009553;28;20682;-47
2023/04/16 05:41:59;;;;;;;17.40;15.50;;;;;;;7.57;100.00;101971.22;5004549;28;20193;-48
2023/04/16 05:44:25;;;;;;;18.63;15.15;;;;;;;7.53;100.00;101980.13;5000944;28;20276;-47
2023/04/16 05:46:51;;;;;;;24.52;16.67;;;;;;;7.49;100.00;101981.91;4999129;28;20268;-46
2023/04/16 05:49:20;;;;;;;21.10;15.98;;;;;;;7.52;100.00;101986.34;5003020;28;20205;-46
2023/04/16 05:51:47;;;;;;;20.17;15.82;;;;;;;7.51;100.00;101990.81;5000181;28;20187;-46
2023/04/16 05:54:12;;;;;;;19.67;16.90;;;;;;;7.47;100.00;101991.72;5004937;28;20192;-48
2023/04/16 05:56:38;;;;;;;22.63;16.98;;;;;;;7.36;100.00;101994.44;5004311;28;20177;-47
2023/04/16 05:59:03;;;;;;;20.15;16.98;;;;;;;7.31;100.00;101996.25;5000459;28;20590;-48
2023/04/16 06:01:29;;;;;;;21.95;17.73;;;;;;;7.29;100.00;101999.84;5002824;28;20204;-47
2023/04/16 06:03:54;;;;;;;23.27;18.35;;;;;;;7.27;100.00;101998.97;5004675;28;20199;-47
2023/04/16 06:06:20;;;;;;;20.20;17.83;;;;;;;7.26;100.00;101999.84;5003345;28;20788;-45
2023/04/16 06:08:45;;;;;;;19.98;17.83;;;;;;;7.27;100.00;102005.16;5000387;28;20228;-47
2023/04/16 06:11:11;;;;;;;21.10;18.55;;;;;;;7.30;100.00;102004.25;5003037;28;20189;-47
2023/04/16 06:13:38;;;;;;;21.83;17.40;;;;;;;7.33;100.00;102009.59;4998966;28;20202;-48
2023/04/16 06:16:04;;;;;;;24.42;18.75;;;;;;;7.36;100.00;102005.09;5001889;28;20188;-46
2023/04/16 06:18:30;;;;;;;22.05;19.02;;;;;;;7.38;100.00;102013.97;4998853;28;20227;-47
2023/04/16 06:20:57;;;;;;;22.73;18.08;;;;;;;7.37;100.00;102003.34;5003273;28;20659;-46
2023/04/16 06:23:23;;;;;;;21.42;17.95;;;;;;;7.42;100.00;102002.41;4999146;28;20198;-46
2023/04/16 06:25:48;;;;;;;20.88;18.33;;;;;;;7.46;100.00;102011.28;4998693;28;20189;-47
2023/04/16 06:28:14;;;;;;;21.88;18.25;;;;;;;7.50;100.00;102009.47;5003134;28;20205;-48
2023/04/16 06:30:40;;;;;;;21.48;17.42;;;;;;;7.53;100.00;102017.47;4998985;28;20535;-48
2023/04/16 06:33:05;;;;;;;20.08;17.20;;;;;;;7.56;100.00;102010.31;5008919;28;20182;-48
2023/04/16 06:35:31;;;;;;;18.23;16.33;;;;;;;7.61;100.00;102020.97;5000560;28;20706;-45
2023/04/16 06:37:56;;;;;;;22.10;17.13;;;;;;;7.66;100.00;102013.81;4998570;28;20565;-47
2023/04/16 06:40:22;;;;;;;20.95;18.02;;;;;;;7.68;100.00;102014.69;4999358;28;20217;-47
2023/04/16 06:42:48;;;;;;;22.58;18.00;;;;;;;7.66;100.00;102020.94;5001401;28;20176;-47
2023/04/16 06:45:13;;;;;;;21.17;17.52;;;;;;;7.64;100.00;102027.16;4997703;28;20698;-48
2023/04/16 06:47:39;;;;;;;24.23;18.67;;;;;;;7.55;100.00;102027.22;5001390;28;20181;-46
2023/04/16 06:50:05;;;;;;;24.05;18.10;;;;;;;7.46;100.00;102045.06;4998369;28;20274;-46
2023/04/16 06:52:31;;;;;;;23.67;18.90;;;;;;;7.35;100.00;102045.13;4998516;28;20244;-47
2023/04/16 06:54:57;;;;;;;25.52;20.50;;;;;;;7.29;100.00;102048.69;5001908;28;20592;-47
2023/04/16 06:57:23;;;;;;;26.48;19.73;;;;;;;7.25;100.00;102051.41;4997586;28;20223;-44
2023/04/16 06:59:48;;;;;;;24.42;20.08;;;;;;;7.19;100.00;102049.63;4997466;28;20205;-48
2023/04/16 07:02:14;;;;;;;23.15;19.83;;;;;;;7.15;100.00;102053.19;5002985;28;20651;-46
2023/04/16 07:04:39;;;;;;;23.75;20.60;;;;;;;7.13;100.00;102047.03;4997857;28;20220;-45
2023/04/16 07:07:05;;;;;;;22.67;20.27;;;;;;;7.15;100.00;102048.78;4997763;28;20779;-46
2023/04/16 07:09:31;;;;;;;24.85;20.58;;;;;;;7.22;100.00;102045.19;5003259;28;20731;-46
2023/04/16 07:11:56;;;;;;;30.73;21.02;;;;;;;7.23;100.00;102051.38;5007392;28;20240;-46
2023/04/16 07:14:22;;;;;;;23.52;20.05;;;;;;;7.27;100.00;102054.94;4998796;28;20189;-48
2023/04/16 07:16:47;;;;;;;23.17;20.05;;;;;;;7.30;100.00;102052.25;4996462;28;20240;-48
2023/04/16 07:19:13;;;;;;;22.02;19.60;;;;;;;7.35;100.00;102051.34;4997164;28;20213;-45
2023/04/16 07:21:40;;;;;;;23.20;19.23;;;;;;;7.42;100.00;102063.75;4999133;28;20209;-45
2023/04/16 07:24:06;;;;;;;20.48;17.83;;;;;;;7.42;100.00;102063.75;4999372;28;20254;-48
2023/04/16 07:26:31;;;;;;;21.40;18.30;;;;;;;7.46;100.00;102063.75;4999924;28;20197;-49
2023/04/16 07:28:57;;;;;;;19.50;16.95;;;;;;;7.52;100.00;102059.25;5000048;28;20293;-47
2023/04/16 07:31:22;;;;;;;21.73;18.10;;;;;;;7.58;100.00;102068.97;4996116;28;20655;-45
2023/04/16 07:33:48;;;;;;;21.38;17.60;;;;;;;7.58;100.00;102061.84;5000631;28;20323;-50
2023/04/16 07:36:14;;;;;;;21.70;17.85;;;;;;;7.61;100.00;102063.66;5000342;28;20559;-46
2023/04/16 07:38:39;;;;;;;19.58;17.33;;;;;;;7.61;100.00;102060.97;5000122;28;20295;-46
2023/04/16 07:41:05;;;;;;;22.60;18.10;;;;;;;7.57;100.00;102067.22;4999290;28;20288;-46
2023/04/16 07:43:31;;;;;;;21.33;18.73;;;;;;;7.47;100.00;102061.03;5015063;28;20707;-46
2023/04/16 07:45:56;;;;;;;24.75;19.65;;;;;;;7.40;100.00;102062.84;5005784;28;20196;-46
2023/04/16 07:48:21;;;;;;;23.50;20.40;;;;;;;7.49;100.00;102069.03;4999897;28;20208;-46
2023/04/16 07:50:48;;;;;;;26.90;21.08;;;;;;;7.36;100.00;102068.22;5002699;28;20633;-46
2023/04/16 07:53:14;;;;;;;25.55;20.63;;;;;;;7.35;100.00;102079.78;4999553;28;20184;-44
2023/04/16 07:55:40;;;;;;;24.88;20.83;;;;;;;7.23;100.00;102072.72;4994472;28;20200;-46
2023/04/16 07:58:06;;;;;;;25.27;20.35;;;;;;;7.25;100.00;102076.25;5004335;28;20220;-46
2023/04/16 08:00:32;;;;;;;27.13;21.88;;;;;;;7.25;100.00;102086.03;4996857;28;20216;-45
2023/04/16 08:02:57;;;;;;;28.20;22.38;;;;;;;7.26;100.00;102090.47;5000174;28;20508;-47
2023/04/16 08:05:23;;;;;;;26.23;21.83;;;;;;;7.32;100.00;102098.44;4995369;28;20189;-47
2023/04/16 08:07:49;;;;;;;26.65;21.27;;;;;;;7.38;100.00;102093.09;4998249;28;20676;-48
2023/04/16 08:10:14;;;;;;;23.00;19.52;;;;;;;7.41;100.00;102091.31;5002252;28;20191;-48
2023/04/16 08:12:40;;;;;;;24.80;19.98;;;;;;;7.45;100.00;102107.28;4999962;28;20189;-45
2023/04/16 08:15:06;;;;;;;22.77;18.23;;;;;;;7.47;100.00;102105.50;4999606;28;20356;-48
2023/04/16 08:17:33;;;;;;;21.90;17.88;;;;;;;7.43;100.00;102110.84;4994851;28;20231;-46
2023/04/16 08:19:59;;;;;;;21.30;17.58;;;;;;;7.47;100.00;102100.16;4997148;28;20881;-44
2023/04/16 08:22:25;;;;;;;20.25;17.27;;;;;;;7.52;100.00;102111.69;4996249;28;20185;-45
2023/04/16 08:24:51;;;;;;;20.27;17.27;;;;;;;7.49;100.00;102114.38;5000772;28;20668;-46
2023/04/16 08:27:17;;;;;;;22.48;18.90;;;;;;;7.38;100.00;102123.31;4998711;28;20192;-46
2023/04/16 08:29:42;;;;;;;26.05;19.50;;;;;;;7.40;100.00;102125.97;5000657;28;20209;-45
2023/04/16 08:32:11;;;;;;;23.90;18.90;;;;;;;7.41;100.00;102123.31;4996518;28;20271;-46
2023/04/16 08:34:36;;;;;;;20.50;17.42;;;;;;;7.40;100.00;102126.84;5000761;28;20596;-46
2023/04/16 08:37:02;;;;;;;18.83;16.83;;;;;;;7.54;100.00;102121.47;4997361;28;20267;-45
2023/04/16 08:39:28;;;;;;;24.48;17.65;;;;;;;7.53;100.00;102132.13;4998666;28;20714;-47
2023/04/16 08:41:55;;;;;;;21.73;17.13;;;;;;;7.58;100.00;102122.31;4999863;28;20592;-46
2023/04/16 08:44:32;;;;;;;22.25;17.10;;;;;;;7.60;100.00;102134.75;4995253;28;20181;-47
2023/04/16 08:46:59;;;;;;;22.42;17.42;;;;;;;7.66;100.00;102135.63;5001532;28;20816;-49
2023/04/16 08:49:26;;;;;;;22.10;16.55;;;;;;;7.71;100.00;102131.16;4995396;28;20642;-48
2023/04/16 08:55:40;;;;;;;20.45;17.58;;;;;;;7.63;100.00;102132.09;4996435;28;20258;-46
2023/04/16 08:58:13;;;;;;;23.45;18.80;;;;;;;7.69;100.00;102143.63;4996629;28;20215;-48
2023/04/16 09:00:40;;;;;;;25.50;19.60;;;;;;;7.55;100.00;102139.22;4997649;28;21091;-46
2023/04/16 09:03:06;;;;;;;23.70;20.17;;;;;;;7.54;100.00;102145.47;4997915;28;20170;-47
2023/04/16 09:05:32;;;;;;;23.67;19.50;;;;;;;7.47;100.00;102148.16;4994711;28;20188;-47
2023/04/16 09:07:58;;;;;;;24.27;20.02;;;;;;;7.56;100.00;102150.78;4998785;28;20203;-45
2023/04/16 09:10:26;;;;;;;22.60;18.52;;;;;;;7.58;100.00;102151.66;4996497;28;20186;-44
2023/04/16 09:12:54;;;;;;;28.33;19.10;;;;;;;7.56;100.00;102150.78;4995971;28;20189;-46
2023/04/16 09:15:21;;;;;;;19.88;16.95;;;;;;;7.60;100.00;102156.09;5004003;28;20207;-46
2023/04/16 09:17:46;;;;;;;22.85;17.95;;;;;;;7.68;100.00;102156.06;4996137;28;20184;-45
2023/04/16 09:20:13;;;;;;;24.27;17.05;;;;;;;7.63;100.00;102150.75;4992775;28;20235;-47
2023/04/16 09:22:39;;;;;;;21.33;17.95;;;;;;;7.60;100.00;102158.75;4998175;28;20296;-45
2023/04/16 09:25:05;;;;;;;20.35;18.20;;;;;;;7.56;100.00;102165.00;5001489;28;21224;-47
2023/04/16 09:27:31;;;;;;;21.23;17.95;;;;;;;7.57;100.00;102169.44;4998460;28;20177;-46
2023/04/16 09:29:57;;;;;;;28.17;19.70;;;;;;;7.48;100.00;102168.59;4996964;28;20387;-45
2023/04/16 09:32:26;;;;;;;24.63;18.35;;;;;;;7.47;100.00;102170.38;4994733;28;20177;-48
2023/04/16 09:34:59;;;;;;;22.30;19.05;;;;;;;7.51;100.00;102179.25;4997924;28;20275;-46
2023/04/16 09:37:29;;;;;;;22.23;18.23;;;;;;;7.45;100.00;102180.16;4996057;28;20219;-47
2023/04/16 09:39:57;;;;;;;24.38;18.85;;;;;;;7.47;100.00;102177.50;4996493;28;20224;-45
2023/04/16 09:42:35;;;;;;;22.02;18.98;;;;;;;7.43;100.00;102185.53;4998060;28;20323;-48
2023/04/16 09:45:01;;;;;;;22.05;18.77;;;;;;;7.43;100.00;102180.19;5000910;28;20267;-45
2023/04/16 09:47:46;;;;;;;22.17;17.92;;;;;;;7.45;100.00;102176.63;4998818;28;20178;-48
2023/04/16 09:50:17;;;;;;;22.55;19.17;;;;;;;7.50;100.00;102194.38;4995095;28;20201;-46
2023/04/16 09:52:44;;;;;;;21.33;17.80;;;;;;;7.52;100.00;102191.69;4995934;28;20180;-45
2023/04/16 09:55:10;;;;;;;19.45;16.58;;;;;;;7.52;100.00;102194.34;5000056;28;20211;-45
2023/04/16 09:57:37;;;;;;;24.33;17.52;;;;;;;7.51;100.00;102190.81;4999946;28;20292;-47
2023/04/16 10:00:04;;;;;;;21.55;17.42;;;;;;;7.52;100.00;102189.03;5003568;28;20709;-46
2023/04/16 10:02:31;;;;;;;20.25;17.58;;;;;;;7.56;100.00;102193.47;4999409;28;20185;-45
2023/04/16 10:05:00;;;;;;;23.88;17.80;;;;;;;7.54;100.00;102204.16;4997774;28;20555;-46
2023/04/16 10:07:33;;;;;;;20.08;17.85;;;;;;;7.55;100.00;102203.25;5000430;28;20177;-47
2023/04/16 10:09:58;;;;;;;21.48;17.40;;;;;;;7.63;100.00;102208.53;5000666;28;20205;-46
2023/04/16 10:12:24;;;;;;;24.10;17.40;;;;;;;7.67;100.00;102207.63;5003569;28;20595;-47
2023/04/16 10:14:49;;;;;;;21.77;17.73;;;;;;;7.72;100.00;102204.94;5003409;28;20558;-47
2023/04/16 10:17:15;;;;;;;19.13;15.35;;;;;;;7.78;100.00;102215.59;5009814;28;20200;-46
2023/04/16 10:19:41;;;;;;;19.00;15.45;;;;;;;7.88;100.00;102209.31;5001539;28;20204;-48
2023/04/16 10:22:07;;;;;;;19.73;15.35;;;;;;;7.94;100.00;102211.97;4998198;28;20209;-46
2023/04/16 10:24:33;;;;;;;19.80;15.50;;;;;;;8.02;100.00;102207.50;5000677;28;20781;-47
2023/04/16 10:26:59;;;;;;;18.70;15.07;;;;;;;7.96;100.00;102219.94;5001987;28;20564;-45
2023/04/16 10:29:30;;;;;;;18.75;15.73;;;;;;;7.90;100.00;102220.88;5001540;28;20196;-46
2023/04/16 10:31:57;;;;;;;20.80;16.48;;;;;;;7.71;100.00;102216.53;4996479;28;20232;-46
2023/04/16 10:34:24;;;;;;;18.65;16.52;;;;;;;7.56;100.00;102222.78;5001009;28;20185;-47
2023/04/16 10:36:52;;;;;;;21.08;17.30;;;;;;;7.48;100.00;102232.59;4999344;28;20231;-45
2023/04/16 10:39:20;;;;;;;20.02;17.85;;;;;;;7.53;100.00;102236.16;4997741;28;20657;-46
2023/04/16 10:41:45;;;;;;;24.65;18.73;;;;;;;7.58;100.00;102231.69;4999775;28;20203;-45
2023/04/16 10:44:11;;;;;;;26.00;18.05;;;;;;;7.69;100.00;102229.84;5001635;28;20905;-45
2023/04/16 10:46:48;;;;;;;23.55;18.17;;;;;;;7.74;100.00;102235.16;5004884;28;20651;-46
2023/04/16 10:49:14;;;;;;;22.77;18.48;;;;;;;7.73;100.00;102236.06;5001450;28;20213;-46
2023/04/16 10:51:40;;;;;;;19.45;17.35;;;;;;;7.72;100.00;102244.97;4996871;28;20177;-47
2023/04/16 10:54:10;;;;;;;19.58;17.52;;;;;;;7.58;100.00;102235.22;4997784;28;20205;-47
2023/04/16 10:56:36;;;;;;;21.83;17.25;;;;;;;7.63;100.00;102240.53;5003961;28;20227;-49
2023/04/16 10:59:06;;;;;;;23.85;17.25;;;;;;;7.73;100.00;102247.63;5002271;28;20203;-48
2023/04/16 11:01:42;;;;;;;17.90;16.10;;;;;;;7.90;100.00;102236.91;4999807;28;20212;-47
2023/04/16 11:04:20;;;;;;;23.27;16.70;;;;;;;7.89;100.00;102240.44;4999985;28;20830;-48
2023/04/16 11:07:13;;;;;;;18.58;16.48;;;;;;;7.95;100.00;102234.19;4999847;28;20180;-47
2023/04/16 11:09:53;;;;;;;18.33;15.93;;;;;;;7.98;100.00;102231.50;4998412;28;20209;-48